sensor_id;sensor_type;location;lat;lon;timestamp;pressure;altitude;pressure_sealevel;temperature;humidity
77626;BME280;66794;43.764;10.436;2023-10-13T00:01:14;103269.47;;;17.12;100.00
77626;BME280;66794;43.764;10.436;2023-10-13T00:04:00;103256.03;;;17.01;100.00
77626;BME280;66794;43.764;10.436;2023-10-13T00:06:51;103248.59;;;16.57;100.00
77626;BME280;66794;43.764;10.436;2023-10-13T00:09:38;103266.22;;;16.73;100.00
77626;BME280;66794;43.764;10.436;2023-10-13T00:12:24;103281.63;;;17.09;100.00
77626;BME280;66794;43.764;10.436;2023-10-13T00:15:10;103262.75;;;17.06;100.00
77626;BME280;66794;43.764;10.436;2023-10-13T00:17:59;103262.38;;;17.19;100.00
77626;BME280;66794;43.764;10.436;2023-10-13T00:20:45;103230.06;;;17.05;100.00
77626;BME280;66794;43.764;10.436;2023-10-13T00:23:34;103240.13;;;17.22;100.00
77626;BME280;66794;43.764;10.436;2023-10-13T00:26:21;103250.41;;;17.20;100.00
77626;BME280;66794;43.764;10.436;2023-10-13T00:29:13;103233.03;;;17.12;100.00
77626;BME280;66794;43.764;10.436;2023-10-13T00:31:58;103247.94;;;17.35;100.00
77626;BME280;66794;43.764;10.436;2023-10-13T00:34:45;103234.00;;;17.02;100.00
77626;BME280;66794;43.764;10.436;2023-10-13T00:37:31;103220.84;;;17.06;100.00
77626;BME280;66794;43.764;10.436;2023-10-13T00:40:26;103220.81;;;16.80;100.00
77626;BME280;66794;43.764;10.436;2023-10-13T00:43:15;103220.28;;;16.67;100.00
77626;BME280;66794;43.764;10.436;2023-10-13T00:46:04;103247.94;;;16.91;100.00
77626;BME280;66794;43.764;10.436;2023-10-13T00:48:53;103246.19;;;16.90;100.00
77626;BME280;66794;43.764;10.436;2023-10-13T00:51:40;103224.06;;;16.83;100.00
77626;BME280;66794;43.764;10.436;2023-10-13T00:54:34;103236.13;;;16.73;100.00
77626;BME280;66794;43.764;10.436;2023-10-13T00:57:22;103247.03;;;16.37;100.00
77626;BME280;66794;43.764;10.436;2023-10-13T01:00:15;103259.75;;;16.46;100.00
77626;BME280;66794;43.764;10.436;2023-10-13T01:03:13;103275.34;;;16.64;100.00
77626;BME280;66794;43.764;10.436;2023-10-13T01:05:59;103293.84;;;16.52;100.00
77626;BME280;66794;43.764;10.436;2023-10-13T01:08:46;103309.25;;;16.80;100.00
77626;BME280;66794;43.764;10.436;2023-10-13T01:11:38;103309.25;;;16.53;100.00
77626;BME280;66794;43.764;10.436;2023-10-13T01:14:24;103260.69;;;15.82;100.00
77626;BME280;66794;43.764;10.436;2023-10-13T01:17:14;103286.84;;;16.22;100.00
77626;BME280;66794;43.764;10.436;2023-10-13T01:20:00;103281.00;;;16.07;100.00
77626;BME280;66794;43.764;10.436;2023-10-13T01:22:46;103289.63;;;16.02;100.00
77626;BME280;66794;43.764;10.436;2023-10-13T01:25:40;103294.00;;;15.95;100.00
77626;BME280;66794;43.764;10.436;2023-10-13T01:28:26;103310.56;;;15.84;100.00
77626;BME280;66794;43.764;10.436;2023-10-13T01:31:12;103312.91;;;15.60;100.00
77626;BME280;66794;43.764;10.436;2023-10-13T01:36:58;103349.00;;;15.53;100.00
77626;BME280;66794;43.764;10.436;2023-10-13T01:39:50;103358.06;;;15.64;100.00
77626;BME280;66794;43.764;10.436;2023-10-13T01:42:36;103365.09;;;15.57;100.00
77626;BME280;66794;43.764;10.436;2023-10-13T01:45:22;103390.53;;;15.86;100.00
77626;BME280;66794;43.764;10.436;2023-10-13T01:48:14;103388.81;;;15.95;100.00
77626;BME280;66794;43.764;10.436;2023-10-13T01:51:06;103387.44;;;16.09;100.00
77626;BME280;66794;43.764;10.436;2023-10-13T01:53:55;103380.41;;;16.06;100.00
77626;BME280;66794;43.764;10.436;2023-10-13T01:56:44;103403.91;;;16.36;100.00
77626;BME280;66794;43.764;10.436;2023-10-13T01:59:29;103383.41;;;16.13;100.00
77626;BME280;66794;43.764;10.436;2023-10-13T02:02:16;103392.75;;;16.20;100.00
77626;BME280;66794;43.764;10.436;2023-10-13T02:05:14;103404.69;;;16.19;100.00
77626;BME280;66794;43.764;10.436;2023-10-13T02:08:02;103388.78;;;16.04;100.00
77626;BME280;66794;43.764;10.436;2023-10-13T02:10:49;103395.81;;;16.07;100.00
77626;BME280;66794;43.764;10.436;2023-10-13T02:13:35;103426.81;;;16.25;100.00
77626;BME280;66794;43.764;10.436;2023-10-13T02:16:34;103424.81;;;16.27;100.00
77626;BME280;66794;43.764;10.436;2023-10-13T02:19:22;103420.41;;;16.17;100.00
77626;BME280;66794;43.764;10.436;2023-10-13T02:22:13;103427.97;;;16.33;100.00
77626;BME280;66794;43.764;10.436;2023-10-13T02:25:18;103414.69;;;15.91;100.00
77626;BME280;66794;43.764;10.436;2023-10-13T02:28:20;103403.94;;;15.70;100.00
77626;BME280;66794;43.764;10.436;2023-10-13T02:31:13;103401.78;;;15.83;100.00
77626;BME280;66794;43.764;10.436;2023-10-13T02:33:59;103412.66;;;15.93;100.00
77626;BME280;66794;43.764;10.436;2023-10-13T02:36:46;103397.88;;;15.76;100.00
77626;BME280;66794;43.764;10.436;2023-10-13T02:39:35;103410.81;;;15.93;100.00
77626;BME280;66794;43.764;10.436;2023-10-13T02:42:21;103405.31;;;16.03;100.00
77626;BME280;66794;43.764;10.436;2023-10-13T02:45:10;103394.41;;;15.93;100.00
77626;BME280;66794;43.764;10.436;2023-10-13T02:47:58;103386.34;;;15.92;100.00
77626;BME280;66794;43.764;10.436;2023-10-13T02:50:59;103393.00;;;15.89;100.00
77626;BME280;66794;43.764;10.436;2023-10-13T02:53:51;103383.25;;;15.77;100.00
77626;BME280;66794;43.764;10.436;2023-10-13T02:56:39;103341.22;;;15.49;100.00
77626;BME280;66794;43.764;10.436;2023-10-13T02:59:44;103372.25;;;15.87;100.00
77626;BME280;66794;43.764;10.436;2023-10-13T03:02:33;103365.31;;;16.02;100.00
77626;BME280;66794;43.764;10.436;2023-10-13T03:05:21;103334.19;;;15.56;100.00
77626;BME280;66794;43.764;10.436;2023-10-13T03:08:08;103324.16;;;15.37;100.00
77626;BME280;66794;43.764;10.436;2023-10-13T03:10:56;103322.75;;;15.23;100.00
77626;BME280;66794;43.764;10.436;2023-10-13T03:13:42;103310.34;;;15.48;100.00
77626;BME280;66794;43.764;10.436;2023-10-13T03:16:30;103295.81;;;15.38;100.00
77626;BME280;66794;43.764;10.436;2023-10-13T03:19:16;103289.81;;;15.44;100.00
77626;BME280;66794;43.764;10.436;2023-10-13T03:22:07;103275.25;;;15.53;100.00
77626;BME280;66794;43.764;10.436;2023-10-13T03:24:59;103242.41;;;15.26;100.00
77626;BME280;66794;43.764;10.436;2023-10-13T03:27:59;103243.66;;;15.41;100.00
77626;BME280;66794;43.764;10.436;2023-10-13T03:30:44;103218.31;;;15.12;100.00
77626;BME280;66794;43.764;10.436;2023-10-13T03:33:30;103216.59;;;15.01;100.00
77626;BME280;66794;43.764;10.436;2023-10-13T03:36:18;103209.13;;;14.84;100.00
77626;BME280;66794;43.764;10.436;2023-10-13T03:39:22;103231.63;;;15.24;100.00
77626;BME280;66794;43.764;10.436;2023-10-13T03:42:16;103214.00;;;14.99;100.00
77626;BME280;66794;43.764;10.436;2023-10-13T03:45:07;103206.22;;;14.95;100.00
77626;BME280;66794;43.764;10.436;2023-10-13T03:47:56;103207.66;;;14.99;100.00
77626;BME280;66794;43.764;10.436;2023-10-13T03:50:41;103197.34;;;14.83;100.00
77626;BME280;66794;43.764;10.436;2023-10-13T03:53:43;103236.41;;;14.84;100.00
77626;BME280;66794;43.764;10.436;2023-10-13T03:56:38;103236.13;;;14.96;100.00
77626;BME280;66794;43.764;10.436;2023-10-13T03:59:26;103237.41;;;14.92;100.00
77626;BME280;66794;43.764;10.436;2023-10-13T04:02:20;103267.16;;;14.95;100.00
77626;BME280;66794;43.764;10.436;2023-10-13T04:05:07;103257.06;;;15.06;100.00
77626;BME280;66794;43.764;10.436;2023-10-13T04:08:04;103257.75;;;15.37;100.00
77626;BME280;66794;43.764;10.436;2023-10-13T04:11:28;103257.31;;;15.41;100.00
77626;BME280;66794;43.764;10.436;2023-10-13T04:14:46;103256.53;;;15.59;100.00
77626;BME280;66794;43.764;10.436;2023-10-13T04:17:43;103266.34;;;15.51;100.00
77626;BME280;66794;43.764;10.436;2023-10-13T04:20:31;103252.69;;;15.51;100.00
77626;BME280;66794;43.764;10.436;2023-10-13T04:23:23;103265.44;;;15.70;100.00
77626;BME280;66794;43.764;10.436;2023-10-13T04:26:12;103278.66;;;15.85;100.00
77626;BME280;66794;43.764;10.436;2023-10-13T04:29:06;103248.53;;;15.67;100.00
77626;BME280;66794;43.764;10.436;2023-10-13T04:32:12;103287.94;;;16.01;100.00
77626;BME280;66794;43.764;10.436;2023-10-13T04:35:11;103271.69;;;16.00;100.00
77626;BME280;66794;43.764;10.436;2023-10-13T04:38:00;103271.53;;;16.01;100.00
77626;BME280;66794;43.764;10.436;2023-10-13T04:40:47;103272.94;;;16.06;100.00
77626;BME280;66794;43.764;10.436;2023-10-13T04:43:46;103262.09;;;15.86;100.00
77626;BME280;66794;43.764;10.436;2023-10-13T04:46:42;103268.81;;;15.92;100.00
77626;BME280;66794;43.764;10.436;2023-10-13T04:49:40;103260.78;;;15.90;100.00
77626;BME280;66794;43.764;10.436;2023-10-13T04:52:28;103246.78;;;15.56;100.00
77626;BME280;66794;43.764;10.436;2023-10-13T04:55:33;103270.78;;;15.72;100.00
77626;BME280;66794;43.764;10.436;2023-10-13T04:58:53;103264.13;;;15.84;100.00
77626;BME280;66794;43.764;10.436;2023-10-13T05:01:57;103258.34;;;15.40;100.00
77626;BME280;66794;43.764;10.436;2023-10-13T05:04:43;103249.03;;;15.04;100.00
77626;BME280;66794;43.764;10.436;2023-10-13T05:07:48;103261.13;;;15.02;100.00
77626;BME280;66794;43.764;10.436;2023-10-13T05:10:52;103269.44;;;15.00;100.00
77626;BME280;66794;43.764;10.436;2023-10-13T05:13:56;103281.06;;;14.92;100.00
77626;BME280;66794;43.764;10.436;2023-10-13T05:17:02;103282.63;;;14.95;100.00
77626;BME280;66794;43.764;10.436;2023-10-13T05:20:07;103270.75;;;14.86;100.00
77626;BME280;66794;43.764;10.436;2023-10-13T05:23:12;103301.03;;;14.93;100.00
77626;BME280;66794;43.764;10.436;2023-10-13T05:26:16;103297.03;;;15.07;100.00
77626;BME280;66794;43.764;10.436;2023-10-13T05:29:21;103340.41;;;15.39;100.00
77626;BME280;66794;43.764;10.436;2023-10-13T05:32:26;103359.22;;;15.42;100.00
77626;BME280;66794;43.764;10.436;2023-10-13T05:35:31;103371.28;;;15.49;100.00
77626;BME280;66794;43.764;10.436;2023-10-13T05:38:35;103383.22;;;15.48;100.00
77626;BME280;66794;43.764;10.436;2023-10-13T05:41:39;103359.53;;;15.39;100.00
77626;BME280;66794;43.764;10.436;2023-10-13T05:44:44;103360.25;;;15.12;100.00
77626;BME280;66794;43.764;10.436;2023-10-13T05:47:41;103356.03;;;14.88;100.00
77626;BME280;66794;43.764;10.436;2023-10-13T05:50:27;103349.88;;;14.86;100.00
77626;BME280;66794;43.764;10.436;2023-10-13T05:53:13;103349.41;;;14.81;100.00
77626;BME280;66794;43.764;10.436;2023-10-13T05:56:03;103347.16;;;14.96;100.00
77626;BME280;66794;43.764;10.436;2023-10-13T05:59:07;103333.78;;;14.93;100.00
77626;BME280;66794;43.764;10.436;2023-10-13T06:02:16;103357.75;;;14.99;100.00
77626;BME280;66794;43.764;10.436;2023-10-13T06:05:21;103350.00;;;14.94;100.00
77626;BME280;66794;43.764;10.436;2023-10-13T06:08:25;103358.94;;;15.16;100.00
77626;BME280;66794;43.764;10.436;2023-10-13T06:11:29;103388.97;;;15.74;100.00
77626;BME280;66794;43.764;10.436;2023-10-13T06:14:34;103377.47;;;15.61;100.00
77626;BME280;66794;43.764;10.436;2023-10-13T06:17:38;103369.72;;;15.56;100.00
77626;BME280;66794;43.764;10.436;2023-10-13T06:20:42;103364.22;;;15.85;100.00
77626;BME280;66794;43.764;10.436;2023-10-13T06:23:46;103352.91;;;15.51;100.00
77626;BME280;66794;43.764;10.436;2023-10-13T06:26:50;103369.09;;;15.82;100.00
77626;BME280;66794;43.764;10.436;2023-10-13T06:29:55;103370.88;;;15.63;100.00
77626;BME280;66794;43.764;10.436;2023-10-13T06:32:41;103385.94;;;15.58;100.00
77626;BME280;66794;43.764;10.436;2023-10-13T06:35:26;103385.50;;;15.91;100.00
77626;BME280;66794;43.764;10.436;2023-10-13T06:38:12;103398.97;;;16.02;100.00
77626;BME280;66794;43.764;10.436;2023-10-13T06:41:07;103409.56;;;16.25;100.00
77626;BME280;66794;43.764;10.436;2023-10-13T06:43:53;103412.34;;;16.52;100.00
77626;BME280;66794;43.764;10.436;2023-10-13T06:46:45;103412.41;;;16.70;100.00
77626;BME280;66794;43.764;10.436;2023-10-13T06:49:31;103417.75;;;16.99;100.00
77626;BME280;66794;43.764;10.436;2023-10-13T06:52:24;103406.31;;;16.86;100.00
77626;BME280;66794;43.764;10.436;2023-10-13T06:55:15;103410.72;;;16.97;100.00
77626;BME280;66794;43.764;10.436;2023-10-13T06:58:09;103420.75;;;17.24;100.00
77626;BME280;66794;43.764;10.436;2023-10-13T07:00:59;103428.81;;;17.43;100.00
77626;BME280;66794;43.764;10.436;2023-10-13T07:03:44;103431.22;;;17.64;100.00
77626;BME280;66794;43.764;10.436;2023-10-13T07:06:39;103416.66;;;17.81;100.00
77626;BME280;66794;43.764;10.436;2023-10-13T07:09:28;103409.00;;;17.85;100.00
77626;BME280;66794;43.764;10.436;2023-10-13T07:12:19;103395.22;;;17.77;100.00
77626;BME280;66794;43.764;10.436;2023-10-13T07:15:12;103409.22;;;17.92;100.00
77626;BME280;66794;43.764;10.436;2023-10-13T07:18:05;103399.59;;;17.70;100.00
77626;BME280;66794;43.764;10.436;2023-10-13T07:20:51;103403.81;;;17.82;100.00
77626;BME280;66794;43.764;10.436;2023-10-13T07:23:38;103425.00;;;17.98;100.00
77626;BME280;66794;43.764;10.436;2023-10-13T07:26:24;103419.63;;;18.14;100.00
77626;BME280;66794;43.764;10.436;2023-10-13T07:29:10;103414.59;;;18.27;100.00
77626;BME280;66794;43.764;10.436;2023-10-13T07:31:56;103389.16;;;18.17;100.00
77626;BME280;66794;43.764;10.436;2023-10-13T07:34:41;103404.13;;;18.31;100.00
77626;BME280;66794;43.764;10.436;2023-10-13T07:37:27;103391.69;;;18.45;100.00
77626;BME280;66794;43.764;10.436;2023-10-13T07:40:19;103414.09;;;18.66;100.00
77626;BME280;66794;43.764;10.436;2023-10-13T07:43:25;103399.25;;;18.77;100.00
77626;BME280;66794;43.764;10.436;2023-10-13T07:46:13;103398.09;;;18.87;100.00
77626;BME280;66794;43.764;10.436;2023-10-13T07:48:58;103384.22;;;19.05;100.00
77626;BME280;66794;43.764;10.436;2023-10-13T07:52:00;103371.03;;;19.33;100.00
77626;BME280;66794;43.764;10.436;2023-10-13T07:55:00;103352.47;;;19.27;100.00
77626;BME280;66794;43.764;10.436;2023-10-13T07:57:56;103358.66;;;19.29;100.00
77626;BME280;66794;43.764;10.436;2023-10-13T08:00:44;103339.25;;;19.39;100.00
77626;BME280;66794;43.764;10.436;2023-10-13T08:03:30;103328.25;;;19.55;100.00
77626;BME280;66794;43.764;10.436;2023-10-13T08:06:31;103331.00;;;19.55;100.00
77626;BME280;66794;43.764;10.436;2023-10-13T08:09:17;103321.53;;;19.82;100.00
77626;BME280;66794;43.764;10.436;2023-10-13T08:12:26;103289.78;;;19.63;100.00
77626;BME280;66794;43.764;10.436;2023-10-13T08:15:12;103300.72;;;19.88;100.00
77626;BME280;66794;43.764;10.436;2023-10-13T08:18:06;103304.19;;;19.90;100.00
77626;BME280;66794;43.764;10.436;2023-10-13T08:21:03;103291.00;;;20.16;100.00
77626;BME280;66794;43.764;10.436;2023-10-13T08:23:52;103268.00;;;20.09;100.00
77626;BME280;66794;43.764;10.436;2023-10-13T08:26:41;103255.97;;;20.41;100.00
77626;BME280;66794;43.764;10.436;2023-10-13T08:29:46;103254.53;;;20.54;100.00
77626;BME280;66794;43.764;10.436;2023-10-13T08:32:41;103237.97;;;20.62;100.00
77626;BME280;66794;43.764;10.436;2023-10-13T08:35:39;103222.63;;;20.67;100.00
77626;BME280;66794;43.764;10.436;2023-10-13T08:38:39;103218.81;;;20.91;100.00
77626;BME280;66794;43.764;10.436;2023-10-13T08:41:37;103207.44;;;20.94;100.00
77626;BME280;66794;43.764;10.436;2023-10-13T08:44:44;103185.13;;;21.04;100.00
77626;BME280;66794;43.764;10.436;2023-10-13T08:47:38;103182.09;;;21.14;100.00
77626;BME280;66794;43.764;10.436;2023-10-13T08:50:24;103183.34;;;21.11;100.00
77626;BME280;66794;43.764;10.436;2023-10-13T08:53:29;103178.13;;;21.16;100.00
77626;BME280;66794;43.764;10.436;2023-10-13T08:56:31;103175.22;;;21.33;100.00
77626;BME280;66794;43.764;10.436;2023-10-13T08:59:20;103170.28;;;21.43;100.00
77626;BME280;66794;43.764;10.436;2023-10-13T09:02:24;103159.44;;;21.71;100.00
77626;BME280;66794;43.764;10.436;2023-10-13T09:05:29;103148.09;;;21.81;100.00
77626;BME280;66794;43.764;10.436;2023-10-13T09:08:46;103132.03;;;22.05;100.00
77626;BME280;66794;43.764;10.436;2023-10-13T09:11:50;103129.81;;;21.79;100.00
77626;BME280;66794;43.764;10.436;2023-10-13T09:14:40;103135.44;;;21.86;100.00
77626;BME280;66794;43.764;10.436;2023-10-13T09:17:30;103112.22;;;22.17;100.00
77626;BME280;66794;43.764;10.436;2023-10-13T09:20:29;103125.25;;;22.23;100.00
77626;BME280;66794;43.764;10.436;2023-10-13T09:23:28;103095.72;;;22.23;100.00
77626;BME280;66794;43.764;10.436;2023-10-13T09:26:33;103106.59;;;22.46;100.00
77626;BME280;66794;43.764;10.436;2023-10-13T09:29:22;103095.72;;;22.45;100.00
77626;BME280;66794;43.764;10.436;2023-10-13T09:32:09;103095.13;;;22.49;100.00
77626;BME280;66794;43.764;10.436;2023-10-13T09:35:01;103087.50;;;22.73;100.00
77626;BME280;66794;43.764;10.436;2023-10-13T09:37:49;103060.97;;;22.78;100.00
77626;BME280;66794;43.764;10.436;2023-10-13T09:40:35;103058.69;;;22.89;100.00
77626;BME280;66794;43.764;10.436;2023-10-13T09:43:24;103067.13;;;23.08;100.00
77626;BME280;66794;43.764;10.436;2023-10-13T09:46:19;103067.06;;;23.36;100.00
77626;BME280;66794;43.764;10.436;2023-10-13T09:49:11;103021.19;;;23.49;100.00
77626;BME280;66794;43.764;10.436;2023-10-13T09:52:01;103028.41;;;23.50;100.00
77626;BME280;66794;43.764;10.436;2023-10-13T09:55:12;103017.88;;;23.25;100.00
77626;BME280;66794;43.764;10.436;2023-10-13T09:58:06;103023.50;;;23.45;100.00
77626;BME280;66794;43.764;10.436;2023-10-13T10:00:59;103051.91;;;23.67;100.00
77626;BME280;66794;43.764;10.436;2023-10-13T10:03:54;103026.16;;;23.25;100.00
77626;BME280;66794;43.764;10.436;2023-10-13T10:07:05;103037.69;;;23.29;100.00
77626;BME280;66794;43.764;10.436;2023-10-13T10:09:59;103057.53;;;23.04;100.00
77626;BME280;66794;43.764;10.436;2023-10-13T10:12:52;103031.41;;;23.07;100.00
77626;BME280;66794;43.764;10.436;2023-10-13T10:15:44;103008.69;;;23.12;100.00
77626;BME280;66794;43.764;10.436;2023-10-13T10:18:32;103022.53;;;22.83;100.00
77626;BME280;66794;43.764;10.436;2023-10-13T10:21:18;103033.66;;;22.62;100.00
77626;BME280;66794;43.764;10.436;2023-10-13T10:24:16;103046.28;;;22.78;100.00
77626;BME280;66794;43.764;10.436;2023-10-13T10:27:24;103023.94;;;23.01;100.00
77626;BME280;66794;43.764;10.436;2023-10-13T10:30:10;103027.59;;;23.15;100.00
77626;BME280;66794;43.764;10.436;2023-10-13T10:32:59;103005.22;;;23.03;100.00
77626;BME280;66794;43.764;10.436;2023-10-13T10:35:47;103004.41;;;22.74;100.00
77626;BME280;66794;43.764;10.436;2023-10-13T10:38:53;102986.47;;;22.64;100.00
77626;BME280;66794;43.764;10.436;2023-10-13T10:41:44;103004.31;;;22.89;100.00
77626;BME280;66794;43.764;10.436;2023-10-13T10:44:40;103002.59;;;23.29;100.00
77626;BME280;66794;43.764;10.436;2023-10-13T10:47:28;102965.72;;;23.09;100.00
77626;BME280;66794;43.764;10.436;2023-10-13T10:50:25;102966.06;;;22.93;100.00
77626;BME280;66794;43.764;10.436;2023-10-13T10:53:23;102936.41;;;23.21;100.00
77626;BME280;66794;43.764;10.436;2023-10-13T10:56:28;102916.22;;;23.21;100.00
77626;BME280;66794;43.764;10.436;2023-10-13T10:59:23;102895.91;;;23.75;100.00
77626;BME280;66794;43.764;10.436;2023-10-13T11:02:11;102899.28;;;23.50;100.00
77626;BME280;66794;43.764;10.436;2023-10-13T11:05:00;102907.94;;;23.27;100.00
77626;BME280;66794;43.764;10.436;2023-10-13T11:07:47;102903.66;;;23.18;100.00
77626;BME280;66794;43.764;10.436;2023-10-13T11:10:36;102914.66;;;23.05;100.00
77626;BME280;66794;43.764;10.436;2023-10-13T11:13:43;102891.44;;;22.93;100.00
77626;BME280;66794;43.764;10.436;2023-10-13T11:16:36;102904.50;;;23.05;100.00
77626;BME280;66794;43.764;10.436;2023-10-13T11:19:42;102904.34;;;23.33;100.00
77626;BME280;66794;43.764;10.436;2023-10-13T11:22:28;102878.47;;;23.74;100.00
77626;BME280;66794;43.764;10.436;2023-10-13T11:25:31;102854.19;;;23.50;100.00
77626;BME280;66794;43.764;10.436;2023-10-13T11:28:20;102835.91;;;23.69;100.00
77626;BME280;66794;43.764;10.436;2023-10-13T11:31:06;102824.69;;;24.48;100.00
77626;BME280;66794;43.764;10.436;2023-10-13T11:34:04;102771.22;;;24.48;100.00
77626;BME280;66794;43.764;10.436;2023-10-13T11:36:51;102756.59;;;24.72;100.00
77626;BME280;66794;43.764;10.436;2023-10-13T11:39:37;102751.13;;;24.59;100.00
77626;BME280;66794;43.764;10.436;2023-10-13T11:42:27;102712.19;;;24.79;100.00
77626;BME280;66794;43.764;10.436;2023-10-13T11:45:13;102750.38;;;24.32;100.00
77626;BME280;66794;43.764;10.436;2023-10-13T11:48:31;102767.31;;;24.04;100.00
77626;BME280;66794;43.764;10.436;2023-10-13T11:51:22;102783.97;;;23.64;100.00
77626;BME280;66794;43.764;10.436;2023-10-13T11:54:23;102798.63;;;23.58;100.00
77626;BME280;66794;43.764;10.436;2023-10-13T11:57:09;102792.47;;;23.56;100.00
77626;BME280;66794;43.764;10.436;2023-10-13T11:59:55;102786.72;;;23.84;100.00
77626;BME280;66794;43.764;10.436;2023-10-13T12:03:02;102761.31;;;24.65;100.00
77626;BME280;66794;43.764;10.436;2023-10-13T12:06:08;102739.56;;;25.00;100.00
77626;BME280;66794;43.764;10.436;2023-10-13T12:09:13;102698.09;;;25.18;100.00
77626;BME280;66794;43.764;10.436;2023-10-13T12:12:05;102678.81;;;25.67;100.00
77626;BME280;66794;43.764;10.436;2023-10-13T12:14:51;102661.53;;;25.65;100.00
77626;BME280;66794;43.764;10.436;2023-10-13T12:17:42;102626.34;;;25.84;100.00
77626;BME280;66794;43.764;10.436;2023-10-13T12:20:30;102625.16;;;26.10;100.00
77626;BME280;66794;43.764;10.436;2023-10-13T12:23:21;102597.56;;;25.60;100.00
77626;BME280;66794;43.764;10.436;2023-10-13T12:26:16;102602.44;;;25.46;100.00
77626;BME280;66794;43.764;10.436;2023-10-13T12:29:05;102578.56;;;25.02;100.00
77626;BME280;66794;43.764;10.436;2023-10-13T12:32:04;102589.03;;;25.25;100.00
77626;BME280;66794;43.764;10.436;2023-10-13T12:34:58;102597.69;;;26.02;100.00
77626;BME280;66794;43.764;10.436;2023-10-13T12:37:50;102595.31;;;26.05;100.00
77626;BME280;66794;43.764;10.436;2023-10-13T12:40:35;102627.59;;;25.08;100.00
77626;BME280;66794;43.764;10.436;2023-10-13T12:43:40;102617.66;;;25.18;100.00
77626;BME280;66794;43.764;10.436;2023-10-13T12:46:44;102611.38;;;25.30;100.00
77626;BME280;66794;43.764;10.436;2023-10-13T12:49:48;102604.88;;;25.54;100.00
77626;BME280;66794;43.764;10.436;2023-10-13T12:52:34;102583.78;;;25.35;100.00
77626;BME280;66794;43.764;10.436;2023-10-13T12:55:20;102584.47;;;25.30;100.00
77626;BME280;66794;43.764;10.436;2023-10-13T12:58:10;102576.69;;;25.57;100.00
77626;BME280;66794;43.764;10.436;2023-10-13T13:01:00;102573.28;;;24.75;100.00
77626;BME280;66794;43.764;10.436;2023-10-13T13:03:52;102587.69;;;25.64;100.00
77626;BME280;66794;43.764;10.436;2023-10-13T13:06:41;102565.59;;;25.21;100.00
77626;BME280;66794;43.764;10.436;2023-10-13T13:09:27;102568.06;;;25.29;100.00
77626;BME280;66794;43.764;10.436;2023-10-13T13:12:12;102540.72;;;25.99;100.00
77626;BME280;66794;43.764;10.436;2023-10-13T13:14:58;102500.09;;;25.86;100.00
77626;BME280;66794;43.764;10.436;2023-10-13T13:17:45;102528.38;;;25.47;100.00
77626;BME280;66794;43.764;10.436;2023-10-13T13:20:32;102507.84;;;25.66;100.00
77626;BME280;66794;43.764;10.436;2023-10-13T13:23:19;102524.91;;;26.00;100.00
77626;BME280;66794;43.764;10.436;2023-10-13T13:26:06;102539.25;;;25.48;100.00
77626;BME280;66794;43.764;10.436;2023-10-13T13:29:01;102496.25;;;25.02;100.00
77626;BME280;66794;43.764;10.436;2023-10-13T13:31:46;102489.13;;;25.13;100.00
77626;BME280;66794;43.764;10.436;2023-10-13T13:34:32;102496.94;;;25.53;100.00
77626;BME280;66794;43.764;10.436;2023-10-13T13:37:18;102492.75;;;25.92;100.00
77626;BME280;66794;43.764;10.436;2023-10-13T13:40:06;102467.03;;;26.38;100.00
77626;BME280;66794;43.764;10.436;2023-10-13T13:43:01;102476.06;;;25.80;100.00
77626;BME280;66794;43.764;10.436;2023-10-13T13:45:47;102467.19;;;25.90;100.00
77626;BME280;66794;43.764;10.436;2023-10-13T13:48:33;102476.50;;;26.07;100.00
77626;BME280;66794;43.764;10.436;2023-10-13T13:51:20;102445.66;;;26.39;100.00
77626;BME280;66794;43.764;10.436;2023-10-13T13:54:12;102454.09;;;26.79;100.00
77626;BME280;66794;43.764;10.436;2023-10-13T13:56:57;102460.13;;;26.41;100.00
77626;BME280;66794;43.764;10.436;2023-10-13T13:59:43;102483.09;;;25.64;100.00
77626;BME280;66794;43.764;10.436;2023-10-13T14:02:30;102453.88;;;25.50;100.00
77626;BME280;66794;43.764;10.436;2023-10-13T14:05:20;102445.16;;;26.77;100.00
77626;BME280;66794;43.764;10.436;2023-10-13T14:08:06;102417.41;;;26.42;100.00
77626;BME280;66794;43.764;10.436;2023-10-13T14:10:57;102449.63;;;25.48;100.00
77626;BME280;66794;43.764;10.436;2023-10-13T14:13:58;102438.03;;;26.34;100.00
77626;BME280;66794;43.764;10.436;2023-10-13T14:16:43;102423.06;;;26.47;100.00
77626;BME280;66794;43.764;10.436;2023-10-13T14:19:35;102436.41;;;26.03;100.00
77626;BME280;66794;43.764;10.436;2023-10-13T14:22:25;102437.31;;;26.39;100.00
77626;BME280;66794;43.764;10.436;2023-10-13T14:25:11;102443.44;;;26.06;100.00
77626;BME280;66794;43.764;10.436;2023-10-13T14:27:59;102427.06;;;26.63;100.00
77626;BME280;66794;43.764;10.436;2023-10-13T14:30:49;102418.84;;;26.44;100.00
77626;BME280;66794;43.764;10.436;2023-10-13T14:33:35;102432.09;;;26.31;100.00
77626;BME280;66794;43.764;10.436;2023-10-13T14:36:23;102459.50;;;25.74;100.00
77626;BME280;66794;43.764;10.436;2023-10-13T14:39:09;102444.03;;;26.08;100.00
77626;BME280;66794;43.764;10.436;2023-10-13T14:41:54;102457.59;;;25.26;100.00
77626;BME280;66794;43.764;10.436;2023-10-13T14:44:40;102456.91;;;25.30;100.00